Time;durP1;ratioP1;P1;durP2;ratioP2;P2;SDS_P1;SDS_P2;PMS_P1;PMS_P2;Temp;Humidity;BMP_temperature;BMP_pressure;BME280_temperature;BME280_humidity;BME280_pressure;Samples;Min_cycle;Max_cycle;Signal;HPM_P1;HPM_P2
2023/11/07 00:00:14;;;;;;;1.10;0.40;;;6.90;99.90;;;;;;5035536;28;20431;-80
2023/11/07 00:02:41;;;;;;;0.30;0.30;;;6.80;99.90;;;;;;5035325;28;20449;-81
2023/11/07 00:05:10;;;;;;;0.40;0.30;;;6.80;99.90;;;;;;5035194;28;20434;-80
2023/11/07 00:07:37;;;;;;;0.50;0.40;;;6.80;99.90;;;;;;5035774;28;20467;-80
2023/11/07 00:10:04;;;;;;;0.40;0.30;;;6.70;99.90;;;;;;5036205;28;20985;-80
2023/11/07 00:12:31;;;;;;;0.40;0.30;;;6.80;99.90;;;;;;5036957;28;20799;-79
2023/11/07 00:14:58;;;;;;;0.30;0.30;;;6.80;99.90;;;;;;5035783;28;20483;-79
2023/11/07 00:17:25;;;;;;;0.40;0.40;;;6.80;99.90;;;;;;5035353;28;20581;-79
2023/11/07 00:19:52;;;;;;;0.87;0.40;;;6.80;99.90;;;;;;5036051;28;20460;-80
2023/11/07 00:22:20;;;;;;;0.40;0.40;;;6.80;99.90;;;;;;5039436;28;20455;-79
2023/11/07 00:24:47;;;;;;;0.40;0.40;;;6.80;99.90;;;;;;5052492;28;20470;-80
2023/11/07 00:27:14;;;;;;;1.07;0.57;;;6.80;99.90;;;;;;5051935;28;20459;-79
2023/11/07 00:29:41;;;;;;;0.40;0.30;;;6.80;99.90;;;;;;5051213;28;20485;-79
2023/11/07 00:32:07;;;;;;;0.40;0.40;;;6.80;99.90;;;;;;5048536;28;20442;-79
2023/11/07 00:34:34;;;;;;;0.40;0.40;;;6.80;99.90;;;;;;5040815;28;20490;-79
2023/11/07 00:37:01;;;;;;;0.90;0.43;;;6.80;99.90;;;;;;5036095;28;20804;-79
2023/11/07 00:39:29;;;;;;;0.40;0.33;;;6.70;99.90;;;;;;5039459;28;20443;-79
2023/11/07 00:41:56;;;;;;;0.30;0.30;;;6.70;99.90;;;;;;5037525;28;20439;-80
2023/11/07 00:44:23;;;;;;;0.40;0.30;;;6.70;99.90;;;;;;5036213;28;20537;-79
2023/11/07 00:46:50;;;;;;;0.83;0.30;;;6.70;99.90;;;;;;5035590;28;20461;-79
2023/11/07 00:49:17;;;;;;;0.30;0.30;;;6.70;99.90;;;;;;5035552;28;20454;-79
2023/11/07 00:51:43;;;;;;;1.10;0.30;;;6.70;99.90;;;;;;5035713;28;20497;-80
2023/11/07 00:54:12;;;;;;;0.40;0.30;;;6.70;99.90;;;;;;5035798;28;20542;-80
2023/11/07 00:56:40;;;;;;;0.30;0.30;;;6.70;99.90;;;;;;5035483;28;20541;-79
2023/11/07 00:59:07;;;;;;;6.73;0.63;;;6.60;99.90;;;;;;5035475;28;20431;-79
2023/11/07 01:01:34;;;;;;;0.30;0.30;;;6.60;99.90;;;;;;5035411;28;20450;-80
2023/11/07 01:04:00;;;;;;;0.30;0.30;;;6.50;99.90;;;;;;5035527;28;20430;-79
2023/11/07 01:06:27;;;;;;;0.30;0.30;;;6.50;99.90;;;;;;5035850;28;20463;-80
2023/11/07 01:08:54;;;;;;;0.30;0.30;;;6.50;99.90;;;;;;5035982;28;20447;-80
2023/11/07 01:11:21;;;;;;;0.30;0.30;;;6.40;99.90;;;;;;5036141;28;20442;-80
2023/11/07 01:13:49;;;;;;;1.60;0.50;;;6.40;99.90;;;;;;5036238;28;20450;-80
2023/11/07 01:16:16;;;;;;;0.30;0.30;;;6.40;99.90;;;;;;5034307;28;21003;-80
2023/11/07 01:18:42;;;;;;;0.30;0.30;;;6.40;99.90;;;;;;5035588;28;20454;-79
2023/11/07 01:21:09;;;;;;;0.40;0.37;;;6.30;99.90;;;;;;5035788;28;20450;-79
2023/11/07 01:23:37;;;;;;;0.30;0.30;;;6.30;99.90;;;;;;5035644;28;20454;-80
2023/11/07 01:26:05;;;;;;;0.30;0.30;;;6.30;99.90;;;;;;5035783;28;20506;-80
2023/11/07 01:28:32;;;;;;;0.50;0.30;;;6.20;99.90;;;;;;5035807;28;20920;-80
2023/11/07 01:31:00;;;;;;;0.30;0.30;;;6.30;99.90;;;;;;5035431;28;20461;-80
2023/11/07 01:33:27;;;;;;;0.97;0.43;;;6.20;99.90;;;;;;5035452;28;20446;-80
2023/11/07 01:35:54;;;;;;;0.30;0.30;;;6.20;99.90;;;;;;5035058;28;20492;-80
2023/11/07 01:38:21;;;;;;;0.30;0.30;;;6.20;99.90;;;;;;5034944;28;20830;-80
2023/11/07 01:40:47;;;;;;;0.60;0.50;;;6.20;99.90;;;;;;5034701;28;20958;-80
2023/11/07 01:43:15;;;;;;;1.03;0.30;;;6.20;99.90;;;;;;5035183;28;20438;-80
2023/11/07 01:45:43;;;;;;;0.40;0.40;;;6.20;99.90;;;;;;5034999;28;20467;-80
2023/11/07 01:48:13;;;;;;;0.30;0.30;;;6.20;99.90;;;;;;5035434;28;20447;-80
2023/11/07 01:50:41;;;;;;;6.93;0.60;;;6.20;99.90;;;;;;5036154;28;20792;-80
2023/11/07 01:53:08;;;;;;;0.30;0.30;;;6.20;99.90;;;;;;5034551;28;20824;-80
2023/11/07 01:55:36;;;;;;;0.40;0.33;;;7.00;99.90;;;;;;5034640;28;20853;-80
2023/11/07 01:58:03;;;;;;;0.30;0.27;;;;;;;;;;5035057;28;20439;-80
2023/11/07 02:00:30;;;;;;;0.40;0.30;;;;;;;;;;5034832;28;20525;-80
2023/11/07 02:02:59;;;;;;;0.30;0.20;;;;;;;;;;5034598;28;20450;-80
2023/11/07 02:05:27;;;;;;;0.40;0.40;;;6.10;99.90;;;;;;5034625;28;20458;-80
2023/11/07 02:07:54;;;;;;;0.30;0.30;;;6.10;99.90;;;;;;5034311;28;20453;-80
2023/11/07 02:10:21;;;;;;;0.30;0.30;;;6.10;99.90;;;;;;5035110;28;20442;-80
2023/11/07 02:12:48;;;;;;;0.80;0.40;;;8.30;99.90;;;;;;5034876;28;20443;-80
2023/11/07 02:15:23;;;;;;;0.30;0.30;;;6.00;99.90;;;;;;5034469;28;20544;-79
2023/11/07 02:17:50;;;;;;;0.30;0.30;;;;;;;;;;5035742;28;20410;-82
2023/11/07 02:20:18;;;;;;;0.30;0.30;;;;;;;;;;5036423;28;20454;-81
2023/11/07 02:22:53;;;;;;;0.60;0.30;;;6.00;99.90;;;;;;5036817;28;20434;-82
2023/11/07 02:25:21;;;;;;;0.60;0.40;;;6.40;99.90;;;;;;5036620;28;20431;-81
2023/11/07 02:27:48;;;;;;;0.43;0.40;;;6.00;99.90;;;;;;5037563;28;20435;-81
2023/11/07 02:30:15;;;;;;;0.43;0.43;;;6.00;99.90;;;;;;5040220;28;20445;-82
2023/11/07 02:32:43;;;;;;;6.23;0.50;;;6.10;99.90;;;;;;5039404;28;20451;-81
2023/11/07 02:35:11;;;;;;;0.40;0.30;;;6.10;99.90;;;;;;5038483;28;20477;-82
2023/11/07 02:37:38;;;;;;;0.30;0.20;;;6.20;99.90;;;;;;5039336;28;20450;-82
2023/11/07 02:40:06;;;;;;;0.30;0.30;;;6.20;99.90;;;;;;5039680;28;20447;-82
2023/11/07 02:42:34;;;;;;;0.40;0.30;;;6.20;99.90;;;;;;5039588;28;20450;-81
2023/11/07 02:45:02;;;;;;;0.30;0.30;;;6.20;99.90;;;;;;5037893;28;21038;-81
2023/11/07 02:47:30;;;;;;;0.30;0.20;;;6.20;99.90;;;;;;5038152;28;20474;-82
2023/11/07 02:49:56;;;;;;;0.30;0.20;;;6.30;99.90;;;;;;5038272;28;20446;-81
2023/11/07 02:52:24;;;;;;;0.73;0.30;;;6.20;99.90;;;;;;5037503;28;20451;-81
2023/11/07 02:54:51;;;;;;;0.30;0.30;;;6.20;99.90;;;;;;5037489;28;20477;-81
2023/11/07 02:57:17;;;;;;;0.40;0.40;;;6.20;99.90;;;;;;5038410;28;20514;-81
2023/11/07 02:59:47;;;;;;;1.00;0.67;;;6.20;99.90;;;;;;5039172;28;20411;-81
2023/11/07 03:02:15;;;;;;;0.30;0.30;;;6.20;99.90;;;;;;5040217;28;20492;-81
2023/11/07 03:04:42;;;;;;;0.30;0.30;;;6.20;99.90;;;;;;5039885;28;20939;-81
2023/11/07 03:07:09;;;;;;;0.30;0.30;;;6.30;99.90;;;;;;5040016;28;20459;-81
2023/11/07 03:09:35;;;;;;;0.40;0.40;;;6.20;99.90;;;;;;5051564;28;20449;-80
2023/11/07 03:12:03;;;;;;;0.90;0.40;;;6.20;99.90;;;;;;5052438;28;20446;-80
2023/11/07 03:14:29;;;;;;;0.33;0.27;;;6.10;99.90;;;;;;5052358;28;20438;-80
2023/11/07 09:01:13;;;;;;;0.40;0.40;;;10.10;99.90;;;;;;4958137;29;20874;-87
2023/11/07 09:03:45;;;;;;;0.30;0.30;;;;;;;;;;4959775;29;20525;-88
2023/11/07 09:06:15;;;;;;;0.40;0.33;;;;;;;;;;4958847;28;20847;-87
2023/11/07 09:08:42;;;;;;;0.30;0.20;;;10.00;99.90;;;;;;4960156;29;20449;-88
2023/11/07 09:14:07;;;;;;;0.50;0.40;;;;;;;;;;4958188;29;20434;-89
2023/11/07 09:16:35;;;;;;;0.40;0.30;;;10.10;99.90;;;;;;4961727;28;20497;-87
2023/11/07 09:19:04;;;;;;;0.40;0.40;;;11.40;99.90;;;;;;4993624;23;20491;-82
2023/11/07 09:21:32;;;;;;;0.40;0.33;;;10.20;99.90;;;;;;4976268;28;20449;-80
2023/11/07 09:23:58;;;;;;;0.97;0.40;;;10.30;99.90;;;;;;4975109;28;20445;-80
2023/11/07 09:26:25;;;;;;;0.60;0.50;;;10.30;99.90;;;;;;4975125;28;20441;-79
2023/11/07 09:28:52;;;;;;;0.40;0.30;;;10.30;99.90;;;;;;4977118;28;20465;-79
2023/11/07 09:31:18;;;;;;;0.30;0.30;;;10.30;99.90;;;;;;4977323;28;20854;-79
2023/11/07 09:33:47;;;;;;;4.20;0.30;;;10.20;99.90;;;;;;4976360;28;20909;-79
2023/11/07 09:36:15;;;;;;;0.30;0.30;;;10.60;99.90;;;;;;4978011;28;20489;-80
2023/11/07 09:38:42;;;;;;;0.30;0.30;;;11.00;99.90;;;;;;4979464;28;20476;-80
2023/11/07 09:41:10;;;;;;;0.30;0.30;;;11.30;99.90;;;;;;4979645;28;20445;-80
2023/11/07 09:43:38;;;;;;;1.23;0.30;;;11.40;99.90;;;;;;4979947;28;20452;-79
2023/11/07 09:46:06;;;;;;;0.40;0.40;;;11.20;99.90;;;;;;4981605;28;20445;-79
2023/11/07 09:48:33;;;;;;;0.30;0.30;;;11.20;99.90;;;;;;4979247;28;20459;-79
2023/11/07 09:51:05;;;;;;;0.30;0.20;;;11.10;99.90;;;;;;4979382;28;20445;-80
2023/11/07 09:53:32;;;;;;;1.43;0.30;;;11.10;99.90;;;;;;4980066;28;20433;-79
2023/11/07 09:56:00;;;;;;;0.40;0.30;;;11.10;99.90;;;;;;4983895;28;20481;-80
2023/11/07 09:58:28;;;;;;;0.30;0.30;;;11.50;99.90;;;;;;4991415;28;20477;-79
2023/11/07 10:00:57;;;;;;;0.30;0.30;;;11.90;99.90;;;;;;4979039;28;20453;-79
2023/11/07 10:03:24;;;;;;;2.40;0.30;;;12.40;99.90;;;;;;4979235;28;20455;-79
2023/11/07 10:05:52;;;;;;;0.43;0.40;;;12.60;99.90;;;;;;4979522;28;20441;-79
2023/11/07 10:08:23;;;;;;;0.30;0.30;;;12.50;99.90;;;;;;4979006;28;20524;-79
2023/11/07 10:11:07;;;;;;;0.30;0.30;;;12.50;99.90;;;;;;4979562;28;20434;-80
2023/11/07 10:13:34;;;;;;;0.30;0.30;;;12.50;99.90;;;;;;4980982;28;20429;-79
2023/11/07 10:16:06;;;;;;;0.30;0.30;;;12.50;99.90;;;;;;4980948;28;20904;-80
2023/11/07 10:18:47;;;;;;;0.30;0.30;;;12.40;99.90;;;;;;4979402;28;20513;-79
2023/11/07 10:21:14;;;;;;;0.70;0.40;;;12.50;99.90;;;;;;4980509;28;20425;-80
2023/11/07 10:23:42;;;;;;;0.30;0.30;;;12.60;99.90;;;;;;4982434;28;20929;-83
2023/11/07 10:26:13;;;;;;;2.17;0.30;;;12.50;99.90;;;;;;4985472;28;20452;-82
2023/11/07 10:28:40;;;;;;;0.40;0.30;;;12.50;99.90;;;;;;4983575;28;20982;-80
2023/11/07 10:31:18;;;;;;;1.57;0.70;;;12.40;99.90;;;;;;4982562;28;20453;-80
2023/11/07 10:33:45;;;;;;;0.30;0.30;;;12.30;99.90;;;;;;4979727;28;20465;-79
2023/11/07 10:36:12;;;;;;;1.50;0.33;;;12.20;99.90;;;;;;4980133;28;20489;-80
2023/11/07 10:38:41;;;;;;;0.30;0.30;;;12.00;99.90;;;;;;4979844;28;20484;-80
2023/11/07 10:41:08;;;;;;;0.30;0.30;;;11.90;99.90;;;;;;4980411;28;20453;-80
2023/11/07 10:43:36;;;;;;;0.30;0.30;;;12.00;99.90;;;;;;4978822;28;20544;-80
2023/11/07 10:46:04;;;;;;;0.30;0.30;;;12.10;99.90;;;;;;4979058;28;20505;-80
2023/11/07 10:48:32;;;;;;;0.83;0.40;;;12.30;99.90;;;;;;4978625;28;20488;-80
2023/11/07 10:51:03;;;;;;;1.07;0.70;;;12.30;99.90;;;;;;4979282;28;20453;-80
2023/11/07 10:53:31;;;;;;;1.90;0.30;;;12.20;99.90;;;;;;4980176;28;20942;-80
2023/11/07 10:56:00;;;;;;;0.30;0.20;;;12.00;99.90;;;;;;4979717;28;20968;-80
2023/11/07 10:58:30;;;;;;;1.60;0.40;;;11.90;99.90;;;;;;4979304;28;20454;-80
2023/11/07 11:00:58;;;;;;;0.40;0.30;;;11.80;99.90;;;;;;4979596;28;20578;-80
2023/11/07 11:03:26;;;;;;;0.40;0.30;;;11.80;99.90;;;;;;4979301;28;20457;-80
2023/11/07 11:05:54;;;;;;;0.30;0.30;;;11.80;99.90;;;;;;4979525;28;20456;-80
2023/11/07 11:08:25;;;;;;;0.63;0.30;;;11.70;99.90;;;;;;4977492;28;20985;-78
2023/11/07 11:10:55;;;;;;;0.30;0.30;;;11.60;99.90;;;;;;4977826;28;20465;-79
2023/11/07 11:13:24;;;;;;;0.30;0.30;;;11.50;99.90;;;;;;4978918;28;20426;-80
2023/11/07 11:15:53;;;;;;;0.30;0.30;;;11.40;99.90;;;;;;4978069;28;20922;-80
2023/11/07 11:18:27;;;;;;;0.87;0.43;;;11.30;99.90;;;;;;4978230;28;20493;-80
2023/11/07 11:21:03;;;;;;;0.30;0.30;;;11.20;99.90;;;;;;4978408;28;20476;-80
2023/11/07 11:23:39;;;;;;;0.30;0.20;;;11.10;99.90;;;;;;4977715;28;20773;-80
2023/11/07 11:26:21;;;;;;;0.30;0.30;;;11.00;99.90;;;;;;4977203;28;20524;-79
2023/11/07 11:28:50;;;;;;;0.30;0.27;;;10.90;99.90;;;;;;4977140;28;20454;-81
2023/11/07 11:31:21;;;;;;;0.30;0.30;;;10.90;99.90;;;;;;4977231;28;20541;-80
2023/11/07 11:33:49;;;;;;;0.40;0.30;;;11.00;99.90;;;;;;4977036;28;20957;-81
2023/11/07 11:36:36;;;;;;;1.20;0.30;;;11.20;99.90;;;;;;4976858;28;20446;-81
2023/11/07 11:39:41;;;;;;;0.30;0.30;;;11.40;99.90;;;;;;4976742;28;20465;-80
2023/11/07 11:42:11;;;;;;;0.40;0.30;;;11.60;99.90;;;;;;4976941;28;20456;-80
2023/11/07 11:44:38;;;;;;;0.40;0.37;;;11.70;99.90;;;;;;4976902;28;20500;-81
2023/11/07 11:47:07;;;;;;;0.40;0.30;;;11.80;99.90;;;;;;4977578;28;21053;-79
2023/11/07 11:49:34;;;;;;;0.30;0.30;;;11.70;99.90;;;;;;4978362;28;20484;-81
2023/11/07 11:52:07;;;;;;;0.63;0.30;;;11.80;99.90;;;;;;4978439;28;20445;-80
2023/11/07 11:54:53;;;;;;;0.30;0.30;;;11.70;99.90;;;;;;4978850;28;20434;-79
2023/11/07 11:57:22;;;;;;;0.50;0.33;;;11.80;99.90;;;;;;4978526;28;20489;-79
2023/11/07 11:59:59;;;;;;;0.30;0.30;;;11.80;99.90;;;;;;4979890;28;20533;-80
2023/11/07 12:02:39;;;;;;;1.07;0.50;;;12.00;99.90;;;;;;4979846;28;20433;-79
2023/11/07 12:05:18;;;;;;;0.40;0.30;;;12.00;99.90;;;;;;4990609;28;20430;-80
2023/11/07 12:07:44;;;;;;;0.40;0.30;;;12.10;99.90;;;;;;4981331;28;20465;-80
2023/11/07 12:10:13;;;;;;;0.40;0.30;;;11.80;99.90;;;;;;4977243;28;20441;-79
2023/11/07 12:12:43;;;;;;;0.30;0.30;;;11.80;99.90;;;;;;4977514;28;20457;-80
2023/11/07 12:15:12;;;;;;;0.50;0.30;;;11.70;99.90;;;;;;4976155;28;20456;-77
2023/11/07 12:17:44;;;;;;;0.40;0.37;;;11.40;99.90;;;;;;4975760;28;20985;-78
2023/11/07 12:20:14;;;;;;;0.37;0.30;;;11.40;99.90;;;;;;4976681;28;20806;-78
2023/11/07 12:22:44;;;;;;;0.30;0.30;;;11.30;99.90;;;;;;4976723;28;20477;-78
2023/11/07 12:25:13;;;;;;;0.30;0.30;;;11.50;99.90;;;;;;4976033;28;20438;-78
2023/11/07 12:27:43;;;;;;;0.30;0.30;;;11.40;99.90;;;;;;4975520;28;20508;-78
2023/11/07 12:30:16;;;;;;;0.30;0.30;;;11.40;99.90;;;;;;4975796;28;20961;-78
2023/11/07 12:32:43;;;;;;;0.30;0.30;;;11.30;99.90;;;;;;4976316;28;20806;-78
2023/11/07 12:35:23;;;;;;;0.50;0.40;;;11.10;99.90;;;;;;4978912;28;20453;-78
2023/11/07 12:37:51;;;;;;;0.30;0.20;;;11.10;99.90;;;;;;4975760;28;20489;-78
2023/11/07 12:40:19;;;;;;;0.40;0.30;;;11.00;99.90;;;;;;4975818;28;20433;-78
2023/11/07 12:42:54;;;;;;;0.30;0.30;;;10.90;99.90;;;;;;4975511;28;20445;-78
2023/11/07 12:45:23;;;;;;;7.87;0.50;;;11.00;99.90;;;;;;4975734;28;20445;-78
2023/11/07 12:47:56;;;;;;;0.50;0.30;;;11.00;99.90;;;;;;4976256;28;20545;-78
2023/11/07 12:50:23;;;;;;;0.30;0.30;;;11.10;99.90;;;;;;4975906;28;20460;-78
2023/11/07 12:52:57;;;;;;;0.40;0.30;;;11.10;99.90;;;;;;4975194;28;20508;-77
2023/11/07 12:55:26;;;;;;;0.30;0.20;;;10.90;99.90;;;;;;4975296;28;20946;-78
2023/11/07 12:57:56;;;;;;;0.30;0.30;;;10.90;99.90;;;;;;4975242;28;20493;-78
2023/11/07 13:00:25;;;;;;;0.30;0.30;;;11.00;99.90;;;;;;4975184;28;20807;-78
2023/11/07 13:02:55;;;;;;;0.30;0.30;;;11.00;99.90;;;;;;4975397;28;20445;-78
2023/11/07 13:05:22;;;;;;;0.40;0.30;;;11.20;99.90;;;;;;4975339;28;20492;-78
2023/11/07 13:07:49;;;;;;;0.50;0.30;;;11.20;99.90;;;;;;4975060;28;20472;-78
2023/11/07 13:10:17;;;;;;;0.30;0.30;;;11.00;99.90;;;;;;4975087;28;20461;-78
2023/11/07 13:12:44;;;;;;;0.30;0.20;;;11.10;99.90;;;;;;4975370;28;20456;-78
2023/11/07 13:15:14;;;;;;;0.30;0.30;;;11.10;99.90;;;;;;4975008;28;20434;-78
2023/11/07 13:17:42;;;;;;;0.30;0.20;;;11.10;99.90;;;;;;4974985;28;20566;-78
2023/11/07 13:20:11;;;;;;;0.40;0.30;;;11.10;99.90;;;;;;4976435;28;20430;-80
2023/11/07 13:22:40;;;;;;;0.40;0.30;;;11.00;99.90;;;;;;4976069;28;20866;-80
2023/11/07 13:25:09;;;;;;;0.30;0.30;;;11.00;99.90;;;;;;4976546;28;20453;-78
2023/11/07 13:27:37;;;;;;;0.30;0.20;;;11.00;99.90;;;;;;4975114;28;20445;-78
2023/11/07 13:30:07;;;;;;;0.50;0.30;;;11.00;99.90;;;;;;4975051;28;20874;-78
2023/11/07 13:32:35;;;;;;;0.40;0.30;;;10.90;99.90;;;;;;4975156;28;20451;-78
2023/11/07 13:35:03;;;;;;;0.30;0.30;;;10.80;99.90;;;;;;4975034;28;21013;-78
2023/11/07 13:37:30;;;;;;;0.93;0.30;;;10.70;99.90;;;;;;4974472;28;20485;-78
2023/11/07 13:39:57;;;;;;;0.30;0.30;;;10.60;99.90;;;;;;4975105;28;20449;-78
2023/11/07 13:42:24;;;;;;;0.60;0.40;;;10.60;99.90;;;;;;4975214;28;20508;-79
2023/11/07 13:44:51;;;;;;;0.40;0.30;;;10.50;99.90;;;;;;4974915;28;20829;-79
2023/11/07 13:47:19;;;;;;;0.30;0.20;;;10.50;99.90;;;;;;4975392;28;20437;-78
2023/11/07 13:49:47;;;;;;;0.30;0.30;;;10.50;99.90;;;;;;4974944;28;20473;-78
2023/11/07 13:52:13;;;;;;;0.30;0.30;;;10.40;99.90;;;;;;4975076;28;20824;-77
2023/11/07 13:54:40;;;;;;;0.30;0.20;;;10.50;99.90;;;;;;4974996;28;20445;-77
2023/11/07 13:57:07;;;;;;;0.40;0.30;;;10.40;99.90;;;;;;4974998;28;20548;-77
2023/11/07 13:59:34;;;;;;;0.40;0.30;;;10.30;99.90;;;;;;4975200;28;20466;-78
2023/11/07 14:02:00;;;;;;;0.30;0.20;;;10.20;99.90;;;;;;4974782;28;20481;-78
2023/11/07 14:04:27;;;;;;;0.40;0.30;;;10.20;99.90;;;;;;4974843;28;20820;-77
2023/11/07 14:06:56;;;;;;;0.30;0.20;;;10.10;99.90;;;;;;4974999;28;20438;-78
2023/11/07 14:09:23;;;;;;;0.40;0.30;;;10.10;99.90;;;;;;4974878;28;20491;-77
2023/11/07 14:11:49;;;;;;;1.23;0.30;;;10.10;99.90;;;;;;4974588;28;20457;-78
2023/11/07 14:14:17;;;;;;;0.90;0.30;;;10.20;99.90;;;;;;4983968;28;20417;-77
2023/11/07 14:16:44;;;;;;;0.40;0.30;;;10.10;99.90;;;;;;4979430;28;21026;-80
2023/11/07 14:19:11;;;;;;;0.40;0.30;;;10.10;99.90;;;;;;4974109;28;20488;-80
2023/11/07 14:21:39;;;;;;;0.40;0.30;;;10.10;99.90;;;;;;4974961;28;20504;-81
2023/11/07 14:24:08;;;;;;;0.30;0.20;;;10.10;99.90;;;;;;4976682;28;20457;-80
2023/11/07 14:26:36;;;;;;;0.30;0.20;;;10.10;99.90;;;;;;4978577;28;20444;-81
2023/11/07 14:29:03;;;;;;;0.33;0.27;;;10.10;99.90;;;;;;4979301;28;20496;-80
2023/11/07 14:31:30;;;;;;;0.40;0.40;;;10.10;99.90;;;;;;4979869;28;20445;-81
2023/11/07 14:33:57;;;;;;;0.30;0.30;;;10.10;99.90;;;;;;4979082;28;20446;-81
2023/11/07 14:36:24;;;;;;;0.30;0.20;;;10.20;99.90;;;;;;4980197;28;20449;-80
2023/11/07 14:38:52;;;;;;;1.33;0.30;;;10.20;99.90;;;;;;4980561;28;20491;-80
2023/11/07 14:41:21;;;;;;;0.40;0.40;;;10.20;99.90;;;;;;4980806;28;20456;-80
2023/11/07 14:43:48;;;;;;;0.30;0.30;;;10.10;99.90;;;;;;4980371;28;20457;-79
2023/11/07 14:46:16;;;;;;;0.30;0.30;;;9.80;99.90;;;;;;4980078;28;20445;-79
2023/11/07 14:48:43;;;;;;;0.30;0.30;;;9.80;99.90;;;;;;4980780;28;20461;-79
2023/11/07 14:51:10;;;;;;;0.33;0.33;;;9.80;99.90;;;;;;4979390;28;20434;-79
2023/11/07 14:53:38;;;;;;;0.30;0.30;;;10.00;99.90;;;;;;4980172;28;20457;-79
2023/11/07 14:56:05;;;;;;;0.30;0.30;;;10.00;99.90;;;;;;4979403;28;20457;-80
2023/11/07 14:58:33;;;;;;;0.40;0.30;;;9.90;99.90;;;;;;4979892;28;20485;-82
2023/11/07 15:01:00;;;;;;;0.30;0.30;;;9.80;99.90;;;;;;4979162;28;20500;-80
2023/11/07 15:03:27;;;;;;;0.30;0.20;;;9.80;99.90;;;;;;4979016;28;20942;-79
2023/11/07 15:05:53;;;;;;;0.30;0.20;;;9.80;99.90;;;;;;4978940;28;20438;-79
2023/11/07 15:08:21;;;;;;;0.40;0.30;;;9.80;99.90;;;;;;4978880;28;20458;-79
2023/11/07 15:10:48;;;;;;;0.30;0.30;;;9.70;99.90;;;;;;4978846;28;21053;-80
2023/11/07 15:13:15;;;;;;;0.30;0.20;;;9.70;99.90;;;;;;4981747;28;20476;-80
2023/11/07 15:15:43;;;;;;;0.30;0.30;;;9.60;99.90;;;;;;4981755;28;20445;-82
2023/11/07 15:18:10;;;;;;;0.30;0.30;;;9.60;99.90;;;;;;5001683;23;20490;-85
2023/11/07 15:20:39;;;;;;;0.40;0.30;;;9.60;99.90;;;;;;4964648;29;20454;-84
2023/11/07 15:23:06;;;;;;;0.30;0.30;;;10.70;99.90;;;;;;4966607;29;20454;-84
2023/11/07 15:25:34;;;;;;;0.40;0.30;;;9.50;99.90;;;;;;4969005;29;20510;-84
2023/11/07 15:28:02;;;;;;;0.30;0.20;;;10.30;99.90;;;;;;4964764;29;20442;-85
2023/11/07 15:30:29;;;;;;;0.40;0.33;;;9.50;99.90;;;;;;4964177;29;20443;-84
2023/11/07 15:32:59;;;;;;;0.40;0.30;;;10.70;99.90;;;;;;4963502;29;20443;-84
2023/11/07 15:35:28;;;;;;;0.40;0.37;;;9.40;99.90;;;;;;4961765;28;20466;-84
2023/11/07 15:37:55;;;;;;;0.30;0.30;;;9.30;99.90;;;;;;4963450;29;20490;-84
2023/11/07 15:40:22;;;;;;;0.30;0.30;;;9.30;99.90;;;;;;4964226;29;20472;-84
2023/11/07 15:42:49;;;;;;;0.40;0.33;;;9.30;99.90;;;;;;4964973;29;20474;-84
2023/11/07 15:45:18;;;;;;;0.30;0.20;;;9.30;99.90;;;;;;4963849;29;20438;-84
2023/11/07 15:47:45;;;;;;;0.30;0.30;;;9.30;99.90;;;;;;4963921;29;20452;-86
2023/11/07 15:50:15;;;;;;;0.60;0.30;;;9.30;99.90;;;;;;4963008;29;20450;-84
2023/11/07 15:52:42;;;;;;;0.40;0.37;;;9.30;99.90;;;;;;4964231;29;20522;-84
2023/11/07 15:55:10;;;;;;;0.73;0.30;;;9.10;99.90;;;;;;4964096;29;20441;-84
2023/11/07 15:57:38;;;;;;;0.40;0.40;;;9.10;99.90;;;;;;4963684;29;20853;-84
2023/11/07 16:00:10;;;;;;;0.30;0.30;;;9.10;99.90;;;;;;4962977;29;20466;-84
2023/11/07 16:02:37;;;;;;;0.40;0.40;;;9.10;99.90;;;;;;4964151;29;20951;-85
2023/11/07 16:05:04;;;;;;;0.50;0.30;;;9.60;99.90;;;;;;4962858;29;20450;-85
2023/11/07 16:07:34;;;;;;;9.13;0.40;;;9.10;99.90;;;;;;4963228;29;20493;-84
2023/11/07 16:10:01;;;;;;;0.40;0.30;;;;;;;;;;4962855;29;20537;-84
2023/11/07 16:12:28;;;;;;;0.30;0.30;;;;;;;;;;4964383;29;20426;-84
2023/11/07 16:14:55;;;;;;;0.30;0.20;;;9.00;99.90;;;;;;4963591;29;20433;-84
2023/11/07 16:17:22;;;;;;;0.63;0.30;;;9.00;99.90;;;;;;4963506;29;20434;-84
2023/11/07 16:19:49;;;;;;;0.40;0.40;;;8.80;99.90;;;;;;4961358;29;20486;-84
2023/11/07 16:22:17;;;;;;;0.57;0.40;;;9.80;99.90;;;;;;4962146;29;20450;-85
2023/11/07 16:24:45;;;;;;;0.47;0.30;;;8.70;99.90;;;;;;4961970;29;20812;-84
2023/11/07 16:27:13;;;;;;;0.30;0.30;;;8.60;99.90;;;;;;4961642;29;20463;-84
2023/11/07 16:29:40;;;;;;;0.30;0.30;;;8.60;99.90;;;;;;4961124;29;20474;-84
2023/11/07 16:32:07;;;;;;;0.40;0.30;;;9.10;99.90;;;;;;4962135;29;20462;-84
2023/11/07 16:34:34;;;;;;;0.40;0.30;;;8.50;99.90;;;;;;4962940;29;20439;-84
2023/11/07 16:37:01;;;;;;;0.30;0.20;;;9.10;99.90;;;;;;4963391;29;20450;-84
2023/11/07 16:39:29;;;;;;;0.80;0.30;;;8.50;99.90;;;;;;4961750;29;20493;-84
2023/11/07 16:41:57;;;;;;;0.30;0.20;;;8.50;99.90;;;;;;4962074;29;21038;-84
2023/11/07 16:44:24;;;;;;;0.60;0.40;;;8.40;99.90;;;;;;4961192;29;20449;-83
2023/11/07 16:46:53;;;;;;;0.40;0.33;;;8.30;99.90;;;;;;4961792;28;20454;-83
2023/11/07 16:49:20;;;;;;;0.40;0.30;;;10.30;99.90;;;;;;4961499;29;20837;-83
2023/11/07 16:51:47;;;;;;;0.40;0.30;;;8.20;99.90;;;;;;4961491;29;20807;-83
2023/11/07 16:54:14;;;;;;;0.30;0.30;;;8.20;99.90;;;;;;4964587;29;20494;-83
2023/11/07 16:56:41;;;;;;;0.43;0.30;;;9.00;99.90;;;;;;4963515;29;20942;-83
2023/11/07 16:59:10;;;;;;;0.40;0.40;;;10.30;99.90;;;;;;4962816;29;20498;-84
2023/11/07 17:01:37;;;;;;;0.40;0.30;;;9.20;99.90;;;;;;4960012;29;20453;-84
2023/11/07 17:04:04;;;;;;;0.50;0.30;;;8.10;99.90;;;;;;4959891;29;20793;-83
2023/11/07 17:06:31;;;;;;;1.00;0.40;;;8.00;99.90;;;;;;4959244;29;20443;-83
2023/11/07 17:08:58;;;;;;;0.77;0.77;;;7.90;99.90;;;;;;4960752;29;20850;-83
2023/11/07 17:11:25;;;;;;;0.40;0.40;;;7.90;99.90;;;;;;4961569;29;20464;-83
2023/11/07 17:13:52;;;;;;;0.40;0.40;;;7.90;99.90;;;;;;4958531;29;20790;-83
2023/11/07 17:16:20;;;;;;;0.30;0.30;;;7.70;99.90;;;;;;4959009;29;20449;-83
2023/11/07 17:18:48;;;;;;;0.37;0.30;;;7.80;99.90;;;;;;4958666;29;20504;-82
2023/11/07 17:21:16;;;;;;;0.30;0.30;;;7.70;99.90;;;;;;4960720;29;20469;-83
2023/11/07 17:23:42;;;;;;;0.40;0.30;;;7.70;99.90;;;;;;4960844;29;20453;-84
2023/11/07 17:26:09;;;;;;;0.40;0.40;;;7.60;99.90;;;;;;4960718;29;20533;-83
2023/11/07 17:28:36;;;;;;;1.67;0.30;;;7.60;99.90;;;;;;4959899;29;20498;-83
2023/11/07 17:31:04;;;;;;;0.40;0.30;;;;;;;;;;4961184;29;20449;-82
2023/11/07 17:33:32;;;;;;;0.40;0.30;;;7.50;99.90;;;;;;4963275;29;20481;-82
2023/11/07 17:35:59;;;;;;;0.30;0.30;;;7.50;99.90;;;;;;4962867;29;20446;-83
2023/11/07 17:38:25;;;;;;;0.30;0.30;;;7.40;99.90;;;;;;4962719;29;20481;-82
2023/11/07 17:40:54;;;;;;;0.30;0.30;;;7.40;99.90;;;;;;4963943;29;20458;-82
2023/11/07 17:43:21;;;;;;;0.30;0.30;;;7.40;99.90;;;;;;4964565;29;20458;-81
2023/11/07 17:45:48;;;;;;;0.40;0.40;;;7.40;99.90;;;;;;4965254;29;20507;-82
2023/11/07 17:48:15;;;;;;;0.73;0.50;;;8.80;99.90;;;;;;4966653;29;20549;-82
2023/11/07 17:50:43;;;;;;;1.57;0.40;;;7.50;99.90;;;;;;4964044;29;20443;-82
2023/11/07 17:53:10;;;;;;;0.53;0.40;;;7.40;99.90;;;;;;4963669;29;20478;-82
2023/11/07 17:55:39;;;;;;;0.60;0.30;;;7.40;99.90;;;;;;4962395;29;20454;-83
2023/11/07 17:58:06;;;;;;;0.30;0.30;;;7.40;99.90;;;;;;4968018;28;20482;-82
2023/11/07 18:00:34;;;;;;;0.87;0.30;;;7.40;99.90;;;;;;4973613;29;20465;-82
2023/11/07 18:03:02;;;;;;;0.40;0.40;;;;;;;;;;4974289;29;20473;-83
2023/11/07 18:05:29;;;;;;;0.30;0.30;;;7.40;99.90;;;;;;4971392;29;20447;-82
2023/11/07 18:07:57;;;;;;;0.30;0.30;;;7.40;99.90;;;;;;4969443;29;20450;-82
2023/11/07 18:10:25;;;;;;;0.67;0.30;;;7.40;99.90;;;;;;4972375;29;20450;-84
2023/11/07 18:12:52;;;;;;;0.50;0.50;;;7.40;99.90;;;;;;4972925;29;20457;-82
2023/11/07 18:15:19;;;;;;;0.30;0.30;;;7.50;99.90;;;;;;4970812;29;20450;-82
2023/11/07 18:17:46;;;;;;;0.30;0.30;;;7.40;99.90;;;;;;4967528;29;20458;-83
2023/11/07 18:20:13;;;;;;;0.47;0.30;;;7.40;99.90;;;;;;4966879;29;20482;-83
2023/11/07 18:22:40;;;;;;;1.03;0.37;;;7.40;99.90;;;;;;4968236;29;20461;-82
2023/11/07 18:25:09;;;;;;;0.30;0.30;;;7.50;99.90;;;;;;4972422;29;20525;-82
2023/11/07 18:27:38;;;;;;;0.67;0.30;;;7.40;99.90;;;;;;4974923;29;20514;-82
2023/11/07 18:30:07;;;;;;;0.73;0.50;;;7.50;99.90;;;;;;4974915;29;20490;-82
2023/11/07 18:32:34;;;;;;;0.40;0.30;;;7.50;99.90;;;;;;4979193;28;20446;-82
2023/11/07 18:37:54;;;;;;;0.30;0.30;;;7.40;99.90;;;;;;4980735;28;20422;-81
2023/11/07 18:40:23;;;;;;;0.73;0.40;;;7.40;99.90;;;;;;4980768;29;20492;-82
2023/11/07 21:23:12;;;;;;;2.47;0.40;;;6.10;99.90;;;;;;4936055;29;20486;-80
2023/11/07 21:25:39;;;;;;;0.50;0.50;;;6.10;99.90;;;;;;4938198;29;20443;-80
2023/11/07 21:28:07;;;;;;;0.60;0.33;;;6.10;99.90;;;;;;4937640;29;21007;-80
2023/11/07 21:30:33;;;;;;;0.40;0.40;;;6.10;99.90;;;;;;4938732;29;20444;-80